KSBP/SBP METAR and TAF weather

Enter ICAO airport designator
Station Type Date Time Source
KSBP METAR 2022/12/10 01:56 UTC NOAA

KSBP 100156Z 32003KT 10SM CLR 12/09 A3009 RMK AO2 SLP190 T01170094


Station Type Date Time Source
KSBP Decoded METAR 2022/12/10 01:56 UTC NOAA

SAN LUIS OBISPO MC CHESNEY, CA, United States (KSBP) 35-14N 120-38W 59M
Dec 09, 2022 - 08:56 PM EST / 2022.12.10 0156 UTC
Wind: from the NW (320 degrees) at 3 MPH (3 KT):0
Visibility: 10 mile(s):0
Sky conditions: clear
Temperature: 53.1 F (11.7 C)
Dew Point: 48.9 F (9.4 C)
Relative Humidity: 85%
Pressure (altimeter): 30.09 in. Hg (1018 hPa)
ob: KSBP 100156Z 32003KT 10SM CLR 12/09 A3009 RMK AO2 SLP190 T01170094
cycle: 2

Station Type Date Time Source
KSBP TAF 2022/12/09 18:58 UTC NOAA

TAF KSBP 091758Z 0918/1018 VRB03KT P6SM SKC
FM092000 VRB03KT P6SM BKN025
FM092300 29008KT P6SM SCT025
FM100200 VRB03KT P6SM SCT025
FM100800 14008KT P6SM VCSH OVC020
FM101600 15015KT 4SM -RA BR OVC012

Example: see airport list